United Spirit — ELYB2 — position and weather

sailwx.info

Track history (hours):
 
Tides and Currents Weather Stations Pressure Air Temp Water Temp Dewpoint Dewpoint Depression Visibility Wind Speed Wind Dir Waves Ship Positions

United Spirit

Last reported at 2017-Apr-20 03:37 UTC. Time now 2017-Apr-29 01:50 UTC.
Position N 31°17' W 123°23'.
Warning: this ship's position is 8 days out of date.

Type: Cargo ship. MMSI: 636011280.

Date/timePositionNaut miles runAvg speedWind from/ knotsBaromVisibWave heightAir tempDewpointWater temp
2017-Apr-20 03:37N 31°17' W 123°23'24915.5
2017-Apr-19 11:37N 31°04' W 118°32'7917.7
2017-Apr-19 07:07N 32°17' W 117°55'317.8
2017-Apr-19 06:58N 32°20' W 117°54'817.8
2017-Apr-19 06:31N 32°27' W 117°51'918.0
2017-Apr-19 06:00N 32°36' W 117°46'917.5
2017-Apr-19 05:31N 32°44' W 117°50'917.9
2017-Apr-19 05:00N 32°52' W 117°53'917.7
2017-Apr-19 04:30N 33°01' W 117°57'713.5
2017-Apr-19 04:00N 33°07' W 118°00'611.3
2017-Apr-19 03:30N 33°12' W 118°02'510.8
2017-Apr-19 03:00N 33°17' W 118°05'510.8
2017-Apr-19 02:30N 33°22' W 118°08'511.0
2017-Apr-19 02:01N 33°27' W 118°10'510.9
2017-Apr-19 01:30N 33°33' W 118°12'611.5
2017-Apr-19 01:00N 33°38' W 118°14'5 9.3
2017-Apr-19 00:29N 33°43' W 118°15'2 5.1
2017-Apr-19 00:00N 33°45' W 118°16'1 0.6
2017-Apr-18 22:03N 33°46' W 118°15'0 0.0
2017-Apr-18 21:39N 33°46' W 118°15'0 0.0
2017-Apr-18 21:27N 33°46' W 118°15'0 0.0
2017-Apr-18 20:51N 33°46' W 118°15'0 0.0
2017-Apr-18 20:27N 33°46' W 118°15'0 0.0
2017-Apr-18 19:57N 33°46' W 118°15'0 0.0
2017-Apr-18 19:27N 33°46' W 118°15'0 0.0
2017-Apr-18 18:57N 33°46' W 118°15'0 0.0
2017-Apr-18 18:27N 33°46' W 118°15'0 0.0
2017-Apr-18 17:21N 33°46' W 118°15'0 0.0
2017-Apr-18 16:48N 33°46' W 118°15'0 0.0
2017-Apr-18 16:30N 33°46' W 118°15'0 0.0
2017-Apr-18 16:00N 33°46' W 118°15'0 0.0
2017-Apr-18 15:21N 33°46' W 118°15'0 0.0
2017-Apr-18 14:57N 33°46' W 118°15'0 0.0
2017-Apr-18 14:27N 33°46' W 118°15'0 0.0
2017-Apr-18 13:21N 33°46' W 118°15'0 0.0
2017-Apr-18 11:48N 33°46' W 118°15'0 0.0
2017-Apr-18 11:24N 33°46' W 118°15'0 0.0
2017-Apr-18 06:54N 33°46' W 118°15'0 0.0
2017-Apr-18 06:27N 33°46' W 118°15'0 0.0
2017-Apr-18 06:00N 33°46' W 118°15'0 0.0
2017-Apr-18 05:17N 33°46' W 118°15'0 0.0
2017-Apr-18 04:59N 33°46' W 118°15'0 0.0
2017-Apr-18 04:28N 33°46' W 118°15'0 0.0
2017-Apr-18 04:00N 33°46' W 118°15'0 0.0
2017-Apr-18 03:08N 33°46' W 118°15'0 0.0
2017-Apr-18 03:00N 33°46' W 118°15'0 0.0
2017-Apr-18 02:27N 33°46' W 118°15'0 0.0
2017-Apr-18 01:58N 33°46' W 118°15'0 0.0
2017-Apr-18 01:28N 33°46' W 118°15'0 0.3
2017-Apr-18 00:55N 33°46' W 118°15'2 3.4
2017-Apr-18 00:22N 33°44' W 118°17'3 7.0
2017-Apr-18 00:00N 33°42' W 118°15'4 7.9
2017-Apr-17 23:30N 33°38' W 118°16'3 6.0
2017-Apr-17 23:00N 33°36' W 118°18'4 7.9
2017-Apr-17 22:30N 33°36' W 118°23'4 8.3
2017-Apr-17 22:00N 33°36' W 118°28'4 8.1
2017-Apr-17 21:30N 33°37' W 118°32'4 8.1
2017-Apr-17 21:00N 33°37' W 118°37'4 8.1
2017-Apr-17 20:30N 33°37' W 118°42'4 7.9
2017-Apr-17 20:00N 33°37' W 118°47'4 7.7
2017-Apr-17 19:26N 33°37' W 118°52'3 7.7
2017-Apr-17 19:00N 33°37' W 118°56'5 9.6
2017-Apr-17 18:30N 33°38' W 119°02'5 9.5
2017-Apr-17 18:00N 33°38' W 119°08'4 9.0
2017-Apr-17 17:30N 33°38' W 119°13'3 6.9
2017-Apr-17 17:00N 33°38' W 119°17'510.8
2017-Apr-17 16:30N 33°38' W 119°24'611.5
2017-Apr-17 16:00N 33°38' W 119°31'611.7
2017-Apr-17 15:30N 33°38' W 119°38'611.7
2017-Apr-17 15:00N 33°39' W 119°45'1111.5
2017-Apr-17 14:00N 33°39' W 119°58'611.3
2017-Apr-17 13:28N 33°40' W 120°05'511.7
2017-Apr-17 13:00N 33°42' W 120°11'612.4
2017-Apr-17 12:30N 33°45' W 120°18'714.1
2017-Apr-17 12:00N 33°48' W 120°26'713.6
2017-Apr-17 11:30N 33°50' W 120°33'713.3
2017-Apr-17 11:00N 33°54' W 120°40'713.5
2017-Apr-17 10:30N 33°59' W 120°45'713.7
2017-Apr-17 10:01N 34°05' W 120°49'713.7
2017-Apr-17 09:30N 34°11' W 120°53'713.3
2017-Apr-17 09:00N 34°16' W 120°58'713.5
2017-Apr-17 08:30N 34°22' W 121°02'713.7
2017-Apr-17 08:00N 34°28' W 121°07'713.9
2017-Apr-17 07:31N 34°34' W 121°11'713.9
2017-Apr-17 07:00N 34°40' W 121°16'714.0
2017-Apr-17 06:30N 34°46' W 121°20'713.8
2017-Apr-17 06:00N 34°52' W 121°25'713.9
2017-Apr-17 05:30N 34°57' W 121°29'713.6
2017-Apr-17 05:00N 35°03' W 121°34'713.5
2017-Apr-17 04:30N 35°09' W 121°38'4112.9
2017-Apr-17 01:19N 35°44' W 122°05'413.0
2017-Apr-17 01:00N 35°47' W 122°08'713.3
2017-Apr-17 00:30N 35°53' W 122°12'713.3
2017-Apr-17 00:00N 35°59' W 122°16'612.9
2017-Apr-16 23:30N 36°04' W 122°20'612.5
2017-Apr-16 23:00N 36°09' W 122°25'713.1
2017-Apr-16 22:30N 36°15' W 122°29'612.9
2017-Apr-16 22:00N 36°20' W 122°33'713.2
2017-Apr-16 21:30N 36°26' W 122°37'613.1
2017-Apr-16 21:00N 36°32' W 122°41'713.0
2017-Apr-16 20:29N 36°38' W 122°44'712.9
2017-Apr-16 19:57N 36°44' W 122°48'612.9
2017-Apr-16 19:29N 36°50' W 122°51'713.2
2017-Apr-16 18:57N 36°56' W 122°55'613.3
2017-Apr-16 18:30N 37°01' W 122°59'713.3
2017-Apr-16 18:00N 37°07' W 123°03'713.1
2017-Apr-16 17:30N 37°13' W 123°07'713.1
2017-Apr-16 17:00N 37°19' W 123°11'713.0
2017-Apr-16 16:30N 37°24' W 123°14'713.0
2017-Apr-16 15:58N 37°31' W 123°18'612.8
2017-Apr-16 15:28N 37°36' W 123°22'613.1
2017-Apr-16 15:00N 37°42' W 123°26'713.6
2017-Apr-16 14:30N 37°48' W 123°29'1413.8
2017-Apr-16 13:30N 38°01' W 123°35'713.8
2017-Apr-16 13:00N 38°07' W 123°38'713.9
2017-Apr-16 12:30N 38°14' W 123°41'713.7
2017-Apr-16 12:01N 38°20' W 123°44'713.5
2017-Apr-16 11:30N 38°27' W 123°48'713.6
2017-Apr-16 11:00N 38°33' W 123°51'713.7
2017-Apr-16 10:31N 38°39' W 123°54'713.7
2017-Apr-16 10:00N 38°46' W 123°57'713.5
2017-Apr-16 09:30N 38°52' W 124°00'714.1
2017-Apr-16 09:01N 38°59' W 124°03'714.0
2017-Apr-16 08:30N 39°05' W 124°06'813.6
2017-Apr-16 07:57N 39°13' W 124°09'714.1
2017-Apr-16 07:29N 39°19' W 124°12'38614.3
2017-Apr-15 04:30N 45°42' W 125°07'713.8
2017-Apr-15 04:00N 45°49' W 125°07'713.7
2017-Apr-15 03:29N 45°56' W 125°08'613.8
2017-Apr-15 03:00N 46°03' W 125°09'714.3
2017-Apr-15 02:30N 46°10' W 125°09'714.3
2017-Apr-15 02:00N 46°17' W 125°09'814.3
2017-Apr-15 01:27N 46°25' W 125°10'614.4
2017-Apr-15 01:00N 46°31' W 125°11'714.0
2017-Apr-15 00:30N 46°39' W 125°11'714.0
2017-Apr-15 00:00N 46°46' W 125°12'714.2
2017-Apr-14 23:30N 46°53' W 125°12'9513.8
2017-Apr-14 16:38N 48°27' W 125°05'216.5
2017-Apr-14 16:30N 48°29' W 125°03'4516.0
2017-Apr-14 13:40N 48°18' W 123°57'316.4
2017-Apr-14 13:30N 48°17' W 123°53'816.3
2017-Apr-14 12:59N 48°16' W 123°40'715.4
2017-Apr-14 12:31N 48°16' W 123°29'714.6
2017-Apr-14 12:01N 48°23' W 123°24'510.3
2017-Apr-14 11:30N 48°24' W 123°17'714.0
2017-Apr-14 11:01N 48°30' W 123°13'917.4
2017-Apr-14 10:31N 48°39' W 123°15'815.4
2017-Apr-14 10:00N 48°45' W 123°08'713.0
2017-Apr-14 09:30N 48°51' W 123°04'918.0
2017-Apr-14 09:00N 48°57' W 123°14'816.1
2017-Apr-14 08:30N 49°03' W 123°21'5 9.8
2017-Apr-14 08:00N 49°07' W 123°16'5 9.5
2017-Apr-14 07:30N 49°06' W 123°09'510.9
2017-Apr-14 07:00N 49°09' W 123°02'5 9.1
2017-Apr-14 06:30N 49°11' W 122°55'0 0.4
2017-Apr-14 05:58N 49°11' W 122°55'0 0.0
2017-Apr-14 05:28N 49°11' W 122°55'0 0.0
2017-Apr-14 04:58N 49°11' W 122°55'0 0.0
2017-Apr-14 04:28N 49°11' W 122°55'0 0.0
2017-Apr-14 03:58N 49°11' W 122°55'0 0.0
2017-Apr-14 03:28N 49°11' W 122°55'0 0.0
2017-Apr-14 02:58N 49°11' W 122°55'0 0.0
2017-Apr-14 02:28N 49°11' W 122°55'0 0.0
2017-Apr-14 01:58N 49°11' W 122°55'0 0.0
2017-Apr-14 01:28N 49°11' W 122°55'0 0.0
2017-Apr-14 00:58N 49°11' W 122°55'0 0.0
2017-Apr-14 00:28N 49°11' W 122°55'0 0.0
2017-Apr-13 23:58N 49°11' W 122°55'0 0.0
2017-Apr-13 23:28N 49°11' W 122°55'0 0.0
2017-Apr-13 22:58N 49°11' W 122°55'0 0.0
2017-Apr-13 22:28N 49°11' W 122°55'0 0.0
2017-Apr-13 21:58N 49°11' W 122°55'0 0.0
2017-Apr-13 21:28N 49°11' W 122°55'0 0.0
2017-Apr-13 20:58N 49°11' W 122°55'0 0.0
2017-Apr-13 20:28N 49°11' W 122°55'0 0.0
2017-Apr-13 19:58N 49°11' W 122°55'0 0.0
2017-Apr-13 19:28N 49°11' W 122°55'0 0.0
2017-Apr-13 18:58N 49°11' W 122°55'0 0.0
2017-Apr-13 18:28N 49°11' W 122°55'0 0.0
2017-Apr-13 17:58N 49°11' W 122°55'0 0.4
2017-Apr-13 17:30N 49°11' W 122°55'3 5.7
2017-Apr-13 17:00N 49°09' W 122°59'510.1
2017-Apr-13 16:30N 49°07' W 123°06'612.0
2017-Apr-13 16:00N 49°08' W 123°15'510.5
2017-Apr-13 15:30N 49°06' W 123°22'611.1
2017-Apr-13 15:00N 49°12' W 123°22'612.5
2017-Apr-13 14:30N 49°18' W 123°18'4 4.1
2017-Apr-13 13:29N 49°17' W 123°12'0 0.1
2017-Apr-13 12:59N 49°17' W 123°12'0 0.1
2017-Apr-13 12:29N 49°17' W 123°12'0 0.0
2017-Apr-13 11:59N 49°17' W 123°12'0 0.2
2017-Apr-13 11:29N 49°17' W 123°12'0 0.1
2017-Apr-13 10:59N 49°17' W 123°12'0 0.0
2017-Apr-13 10:29N 49°17' W 123°12'0 0.1
2017-Apr-13 09:59N 49°17' W 123°12'0 0.1
2017-Apr-13 09:29N 49°17' W 123°12'0 0.0
2017-Apr-13 08:59N 49°17' W 123°12'0 0.1
2017-Apr-13 08:29N 49°17' W 123°12'0 0.0
2017-Apr-13 07:59N 49°17' W 123°12'0 0.0
2017-Apr-13 07:29N 49°17' W 123°12'0 0.1
2017-Apr-13 06:59N 49°17' W 123°12'0 0.0
2017-Apr-13 06:29N 49°17' W 123°12'0 0.1
2017-Apr-13 05:59N 49°17' W 123°12'0 0.1
2017-Apr-13 05:29N 49°17' W 123°12'0 0.0
2017-Apr-13 04:59N 49°17' W 123°12'0 0.0
2017-Apr-13 04:29N 49°17' W 123°12'0 0.0
2017-Apr-13 03:59N 49°17' W 123°12'0 0.0
2017-Apr-13 03:29N 49°17' W 123°12'0 0.0
2017-Apr-13 02:59N 49°17' W 123°12'0 0.0
2017-Apr-13 02:29N 49°17' W 123°12'0 0.0
2017-Apr-13 01:59N 49°17' W 123°12'0 0.0
2017-Apr-13 01:29N 49°17' W 123°12'0 0.0
2017-Apr-13 00:59N 49°17' W 123°12'0 0.0
2017-Apr-13 00:29N 49°17' W 123°12'0 0.0
2017-Apr-12 23:59N 49°17' W 123°12'0 0.0
2017-Apr-12 23:29N 49°17' W 123°12'0 0.0
2017-Apr-12 22:59N 49°17' W 123°12'0 0.0
2017-Apr-12 22:29N 49°17' W 123°12'0 0.0
2017-Apr-12 21:59N 49°17' W 123°12'0 0.0
2017-Apr-12 21:29N 49°17' W 123°12'0 0.0
2017-Apr-12 20:59N 49°17' W 123°12'0 0.0
2017-Apr-12 20:29N 49°17' W 123°12'0 0.0
2017-Apr-12 19:59N 49°17' W 123°12'0 0.0
2017-Apr-12 19:29N 49°17' W 123°12'0 0.1
2017-Apr-12 18:59N 49°17' W 123°12'0 0.0
2017-Apr-12 18:29N 49°17' W 123°12'0 0.1
2017-Apr-12 17:59N 49°17' W 123°12'0 0.1
2017-Apr-12 17:29N 49°17' W 123°12'0 0.0
2017-Apr-12 16:59N 49°17' W 123°12'0 0.0
2017-Apr-12 16:29N 49°17' W 123°12'0 0.0
2017-Apr-12 15:59N 49°17' W 123°12'0 0.0
2017-Apr-12 15:29N 49°17' W 123°12'0 0.0
2017-Apr-12 14:59N 49°17' W 123°12'0 0.0
2017-Apr-12 14:29N 49°17' W 123°12'0 0.0
2017-Apr-12 13:29N 49°17' W 123°12'0 0.2
2017-Apr-12 12:59N 49°17' W 123°11'0 0.0
2017-Apr-12 12:29N 49°17' W 123°11'0 0.0
2017-Apr-12 11:59N 49°17' W 123°11'0 0.0
2017-Apr-12 11:29N 49°17' W 123°11'0 0.1
2017-Apr-12 10:59N 49°17' W 123°11'0 0.0
2017-Apr-12 10:29N 49°17' W 123°11'0 0.1
2017-Apr-12 09:59N 49°17' W 123°11'0 0.1
2017-Apr-12 09:29N 49°17' W 123°11'0 0.1
2017-Apr-12 08:59N 49°17' W 123°11'0 0.0
2017-Apr-12 08:29N 49°17' W 123°11'0 0.1
2017-Apr-12 07:59N 49°17' W 123°12'0 0.0
2017-Apr-12 07:29N 49°17' W 123°12'0 0.0
2017-Apr-12 06:59N 49°17' W 123°12'0 0.0
2017-Apr-12 06:29N 49°17' W 123°12'0 0.0
2017-Apr-12 05:59N 49°17' W 123°12'0 0.0
2017-Apr-12 05:29N 49°17' W 123°12'0 0.0
2017-Apr-12 04:59N 49°17' W 123°12'0 0.1
2017-Apr-12 04:29N 49°17' W 123°11'0 0.0
2017-Apr-12 03:59N 49°17' W 123°11'0 0.1
2017-Apr-12 03:29N 49°17' W 123°11'0 0.1
2017-Apr-12 02:59N 49°17' W 123°11'0 0.1
2017-Apr-12 02:29N 49°17' W 123°11'0 0.0
2017-Apr-12 01:59N 49°17' W 123°11'0 0.0
2017-Apr-12 01:29N 49°17' W 123°11'0 0.1
2017-Apr-12 00:59N 49°17' W 123°11'0 0.0
2017-Apr-12 00:29N 49°17' W 123°11'0 0.1
2017-Apr-11 23:59N 49°17' W 123°11'0 0.1
2017-Apr-11 23:29N 49°17' W 123°11'0 0.0
2017-Apr-11 22:59N 49°17' W 123°11'0 0.1
2017-Apr-11 22:29N 49°17' W 123°11'0 0.1
2017-Apr-11 21:59N 49°17' W 123°11'0 0.1
2017-Apr-11 21:29N 49°17' W 123°11'0 0.0
2017-Apr-11 20:59N 49°17' W 123°11'0 0.0
2017-Apr-11 20:29N 49°17' W 123°11'0 0.1
2017-Apr-11 19:59N 49°17' W 123°11'0 0.0
2017-Apr-11 19:29N 49°17' W 123°11'0 0.0
2017-Apr-11 18:59N 49°17' W 123°11'0 0.0
2017-Apr-11 18:29N 49°17' W 123°11'0 0.1
2017-Apr-11 17:59N 49°17' W 123°12'0 0.0
2017-Apr-11 17:29N 49°17' W 123°12'0 0.0
2017-Apr-11 16:59N 49°17' W 123°12'0 0.0
2017-Apr-11 16:29N 49°17' W 123°12'0 0.0
2017-Apr-11 15:59N 49°17' W 123°12'0 0.0
2017-Apr-11 15:29N 49°17' W 123°12'0 0.1
2017-Apr-11 14:59N 49°17' W 123°12'0 0.0
2017-Apr-11 14:26N 49°17' W 123°12'0 0.0
2017-Apr-11 13:29N 49°17' W 123°12'0 0.0
2017-Apr-11 12:59N 49°17' W 123°12'0 0.0
2017-Apr-11 12:29N 49°17' W 123°12'0 0.0
2017-Apr-11 11:59N 49°17' W 123°12'0 0.1
2017-Apr-11 11:29N 49°17' W 123°12'0 0.1
2017-Apr-11 10:59N 49°17' W 123°11'0 0.0
2017-Apr-11 10:29N 49°17' W 123°11'0 0.0
2017-Apr-11 09:59N 49°17' W 123°11'0 0.0
2017-Apr-11 09:29N 49°17' W 123°11'0 0.0
2017-Apr-11 08:56N 49°17' W 123°11'0 0.1
2017-Apr-11 08:29N 49°17' W 123°11'0 0.1
2017-Apr-11 07:59N 49°17' W 123°12'0 0.1
2017-Apr-11 07:29N 49°17' W 123°11'0 0.0
2017-Apr-11 06:59N 49°17' W 123°11'0 0.1
2017-Apr-11 06:29N 49°17' W 123°12'0 0.0
2017-Apr-11 05:59N 49°17' W 123°12'0 0.0
2017-Apr-11 05:29N 49°17' W 123°12'0 0.0
2017-Apr-11 04:59N 49°17' W 123°12'0 0.0
2017-Apr-11 04:29N 49°17' W 123°12'0 0.0
2017-Apr-11 03:56N 49°17' W 123°12'0 0.0
2017-Apr-11 03:29N 49°17' W 123°12'0 0.1
2017-Apr-11 02:59N 49°17' W 123°11'0 0.0
2017-Apr-11 02:29N 49°17' W 123°11'0 0.1
2017-Apr-11 01:59N 49°17' W 123°12'0 0.0
2017-Apr-11 01:29N 49°17' W 123°12'0 0.0
2017-Apr-11 00:59N 49°17' W 123°12'0 0.1
2017-Apr-11 00:29N 49°17' W 123°12'0 0.0
2017-Apr-10 23:59N 49°17' W 123°12'0 0.0
2017-Apr-10 23:29N 49°17' W 123°12'0 0.1
2017-Apr-10 22:59N 49°17' W 123°12'0 0.1
2017-Apr-10 22:29N 49°17' W 123°12'0 0.0
2017-Apr-10 21:59N 49°17' W 123°12'0 0.0
2017-Apr-10 21:29N 49°17' W 123°12'0 0.0
2017-Apr-10 20:59N 49°17' W 123°12'0 0.0
2017-Apr-10 20:29N 49°17' W 123°12'0 0.0
2017-Apr-10 19:59N 49°17' W 123°12'0 0.0
2017-Apr-10 19:29N 49°17' W 123°12'0 0.0
2017-Apr-10 18:59N 49°17' W 123°12'0 0.0
2017-Apr-10 18:29N 49°17' W 123°12'0 0.0
2017-Apr-10 17:59N 49°17' W 123°12'0 0.0
2017-Apr-10 17:29N 49°17' W 123°12'0 0.0
2017-Apr-10 16:59N 49°17' W 123°12'0 0.0
2017-Apr-10 16:29N 49°17' W 123°12'0 0.0
2017-Apr-10 15:59N 49°17' W 123°12'0 0.0
2017-Apr-10 15:29N 49°17' W 123°12'0 0.0
2017-Apr-10 14:59N 49°17' W 123°12'0 0.0
2017-Apr-10 13:59N 49°17' W 123°12'0 0.0
2017-Apr-10 13:26N 49°17' W 123°12'0 0.0
2017-Apr-10 12:59N 49°17' W 123°12'0 0.0
2017-Apr-10 12:29N 49°17' W 123°12'0 0.0
2017-Apr-10 11:59N 49°17' W 123°12'0 0.0
2017-Apr-10 11:29N 49°17' W 123°12'0 0.0
2017-Apr-10 10:59N 49°17' W 123°12'0 0.0
2017-Apr-10 10:29N 49°17' W 123°12'0 0.0
2017-Apr-10 09:59N 49°17' W 123°12'0 0.0
2017-Apr-10 09:29N 49°17' W 123°12'0 0.0
2017-Apr-10 08:59N 49°17' W 123°12'0 0.0
2017-Apr-10 08:29N 49°17' W 123°12'0 0.1
2017-Apr-10 07:59N 49°17' W 123°11'0 0.1
2017-Apr-10 07:29N 49°17' W 123°12'0 0.0
2017-Apr-10 06:59N 49°17' W 123°12'0 0.0
2017-Apr-10 06:29N 49°17' W 123°12'0 0.0
2017-Apr-10 05:59N 49°17' W 123°12'0 0.0
2017-Apr-10 05:29N 49°17' W 123°12'0 0.0
2017-Apr-10 04:59N 49°17' W 123°12'0 0.0
2017-Apr-10 04:29N 49°17' W 123°12'0 0.0
2017-Apr-10 03:59N 49°17' W 123°12'  
Track history (hours):
 
Tides and Currents Weather Stations Pressure Air Temp Water Temp Dewpoint Dewpoint Depression Visibility Wind Speed Wind Dir Waves Ship Positions

United Spirit

Last reported at 2017-Apr-20 03:37 UTC. Time now 2017-Apr-29 01:50 UTC.
Position N 31°17' W 123°23'.
Warning: this ship's position is 8 days out of date.

Type: Cargo ship. MMSI: 636011280.

Date/timePositionNaut miles runAvg speedWind from/ knotsBaromVisibWave heightAir tempDewpointWater temp
2017-Apr-20 03:37N 31°17' W 123°23'24915.5
2017-Apr-19 11:37N 31°04' W 118°32'7917.7
2017-Apr-19 07:07N 32°17' W 117°55'317.8
2017-Apr-19 06:58N 32°20' W 117°54'817.8
2017-Apr-19 06:31N 32°27' W 117°51'918.0
2017-Apr-19 06:00N 32°36' W 117°46'917.5
2017-Apr-19 05:31N 32°44' W 117°50'917.9
2017-Apr-19 05:00N 32°52' W 117°53'917.7
2017-Apr-19 04:30N 33°01' W 117°57'713.5
2017-Apr-19 04:00N 33°07' W 118°00'611.3
2017-Apr-19 03:30N 33°12' W 118°02'510.8
2017-Apr-19 03:00N 33°17' W 118°05'510.8
2017-Apr-19 02:30N 33°22' W 118°08'511.0
2017-Apr-19 02:01N 33°27' W 118°10'510.9
2017-Apr-19 01:30N 33°33' W 118°12'611.5
2017-Apr-19 01:00N 33°38' W 118°14'5 9.3
2017-Apr-19 00:29N 33°43' W 118°15'2 5.1
2017-Apr-19 00:00N 33°45' W 118°16'1 0.6
2017-Apr-18 22:03N 33°46' W 118°15'0 0.0
2017-Apr-18 21:39N 33°46' W 118°15'0 0.0
2017-Apr-18 21:27N 33°46' W 118°15'0 0.0
2017-Apr-18 20:51N 33°46' W 118°15'0 0.0
2017-Apr-18 20:27N 33°46' W 118°15'0 0.0
2017-Apr-18 19:57N 33°46' W 118°15'0 0.0
2017-Apr-18 19:27N 33°46' W 118°15'0 0.0
2017-Apr-18 18:57N 33°46' W 118°15'0 0.0
2017-Apr-18 18:27N 33°46' W 118°15'0 0.0
2017-Apr-18 17:21N 33°46' W 118°15'0 0.0
2017-Apr-18 16:48N 33°46' W 118°15'0 0.0
2017-Apr-18 16:30N 33°46' W 118°15'0 0.0
2017-Apr-18 16:00N 33°46' W 118°15'0 0.0
2017-Apr-18 15:21N 33°46' W 118°15'0 0.0
2017-Apr-18 14:57N 33°46' W 118°15'0 0.0
2017-Apr-18 14:27N 33°46' W 118°15'0 0.0
2017-Apr-18 13:21N 33°46' W 118°15'0 0.0
2017-Apr-18 11:48N 33°46' W 118°15'0 0.0
2017-Apr-18 11:24N 33°46' W 118°15'0 0.0
2017-Apr-18 06:54N 33°46' W 118°15'0 0.0
2017-Apr-18 06:27N 33°46' W 118°15'0 0.0
2017-Apr-18 06:00N 33°46' W 118°15'0 0.0
2017-Apr-18 05:17N 33°46' W 118°15'0 0.0
2017-Apr-18 04:59N 33°46' W 118°15'0 0.0
2017-Apr-18 04:28N 33°46' W 118°15'0 0.0
2017-Apr-18 04:00N 33°46' W 118°15'0 0.0
2017-Apr-18 03:08N 33°46' W 118°15'0 0.0
2017-Apr-18 03:00N 33°46' W 118°15'0 0.0
2017-Apr-18 02:27N 33°46' W 118°15'0 0.0
2017-Apr-18 01:58N 33°46' W 118°15'0 0.0
2017-Apr-18 01:28N 33°46' W 118°15'0 0.3
2017-Apr-18 00:55N 33°46' W 118°15'2 3.4
2017-Apr-18 00:22N 33°44' W 118°17'3 7.0
2017-Apr-18 00:00N 33°42' W 118°15'4 7.9
2017-Apr-17 23:30N 33°38' W 118°16'3 6.0
2017-Apr-17 23:00N 33°36' W 118°18'4 7.9
2017-Apr-17 22:30N 33°36' W 118°23'4 8.3
2017-Apr-17 22:00N 33°36' W 118°28'4 8.1
2017-Apr-17 21:30N 33°37' W 118°32'4 8.1
2017-Apr-17 21:00N 33°37' W 118°37'4 8.1
2017-Apr-17 20:30N 33°37' W 118°42'4 7.9
2017-Apr-17 20:00N 33°37' W 118°47'4 7.7
2017-Apr-17 19:26N 33°37' W 118°52'3 7.7
2017-Apr-17 19:00N 33°37' W 118°56'5 9.6
2017-Apr-17 18:30N 33°38' W 119°02'5 9.5
2017-Apr-17 18:00N 33°38' W 119°08'4 9.0
2017-Apr-17 17:30N 33°38' W 119°13'3 6.9
2017-Apr-17 17:00N 33°38' W 119°17'510.8
2017-Apr-17 16:30N 33°38' W 119°24'611.5
2017-Apr-17 16:00N 33°38' W 119°31'611.7
2017-Apr-17 15:30N 33°38' W 119°38'611.7
2017-Apr-17 15:00N 33°39' W 119°45'1111.5
2017-Apr-17 14:00N 33°39' W 119°58'611.3
2017-Apr-17 13:28N 33°40' W 120°05'511.7
2017-Apr-17 13:00N 33°42' W 120°11'612.4
2017-Apr-17 12:30N 33°45' W 120°18'714.1
2017-Apr-17 12:00N 33°48' W 120°26'713.6
2017-Apr-17 11:30N 33°50' W 120°33'713.3
2017-Apr-17 11:00N 33°54' W 120°40'713.5
2017-Apr-17 10:30N 33°59' W 120°45'713.7
2017-Apr-17 10:01N 34°05' W 120°49'713.7
2017-Apr-17 09:30N 34°11' W 120°53'713.3
2017-Apr-17 09:00N 34°16' W 120°58'713.5
2017-Apr-17 08:30N 34°22' W 121°02'713.7
2017-Apr-17 08:00N 34°28' W 121°07'713.9
2017-Apr-17 07:31N 34°34' W 121°11'713.9
2017-Apr-17 07:00N 34°40' W 121°16'714.0
2017-Apr-17 06:30N 34°46' W 121°20'713.8
2017-Apr-17 06:00N 34°52' W 121°25'713.9
2017-Apr-17 05:30N 34°57' W 121°29'713.6
2017-Apr-17 05:00N 35°03' W 121°34'713.5
2017-Apr-17 04:30N 35°09' W 121°38'4112.9
2017-Apr-17 01:19N 35°44' W 122°05'413.0
2017-Apr-17 01:00N 35°47' W 122°08'713.3
2017-Apr-17 00:30N 35°53' W 122°12'713.3
2017-Apr-17 00:00N 35°59' W 122°16'612.9
2017-Apr-16 23:30N 36°04' W 122°20'612.5
2017-Apr-16 23:00N 36°09' W 122°25'713.1
2017-Apr-16 22:30N 36°15' W 122°29'612.9
2017-Apr-16 22:00N 36°20' W 122°33'713.2
2017-Apr-16 21:30N 36°26' W 122°37'613.1
2017-Apr-16 21:00N 36°32' W 122°41'713.0
2017-Apr-16 20:29N 36°38' W 122°44'712.9
2017-Apr-16 19:57N 36°44' W 122°48'612.9
2017-Apr-16 19:29N 36°50' W 122°51'713.2
2017-Apr-16 18:57N 36°56' W 122°55'613.3
2017-Apr-16 18:30N 37°01' W 122°59'713.3
2017-Apr-16 18:00N 37°07' W 123°03'713.1
2017-Apr-16 17:30N 37°13' W 123°07'713.1
2017-Apr-16 17:00N 37°19' W 123°11'713.0
2017-Apr-16 16:30N 37°24' W 123°14'713.0
2017-Apr-16 15:58N 37°31' W 123°18'612.8
2017-Apr-16 15:28N 37°36' W 123°22'613.1
2017-Apr-16 15:00N 37°42' W 123°26'713.6
2017-Apr-16 14:30N 37°48' W 123°29'1413.8
2017-Apr-16 13:30N 38°01' W 123°35'713.8
2017-Apr-16 13:00N 38°07' W 123°38'713.9
2017-Apr-16 12:30N 38°14' W 123°41'713.7
2017-Apr-16 12:01N 38°20' W 123°44'713.5
2017-Apr-16 11:30N 38°27' W 123°48'713.6
2017-Apr-16 11:00N 38°33' W 123°51'713.7
2017-Apr-16 10:31N 38°39' W 123°54'713.7
2017-Apr-16 10:00N 38°46' W 123°57'713.5
2017-Apr-16 09:30N 38°52' W 124°00'714.1
2017-Apr-16 09:01N 38°59' W 124°03'714.0
2017-Apr-16 08:30N 39°05' W 124°06'813.6
2017-Apr-16 07:57N 39°13' W 124°09'714.1
2017-Apr-16 07:29N 39°19' W 124°12'38614.3
2017-Apr-15 04:30N 45°42' W 125°07'713.8
2017-Apr-15 04:00N 45°49' W 125°07'713.7
2017-Apr-15 03:29N 45°56' W 125°08'613.8
2017-Apr-15 03:00N 46°03' W 125°09'714.3
2017-Apr-15 02:30N 46°10' W 125°09'714.3
2017-Apr-15 02:00N 46°17' W 125°09'814.3
2017-Apr-15 01:27N 46°25' W 125°10'614.4
2017-Apr-15 01:00N 46°31' W 125°11'714.0
2017-Apr-15 00:30N 46°39' W 125°11'714.0
2017-Apr-15 00:00N 46°46' W 125°12'714.2
2017-Apr-14 23:30N 46°53' W 125°12'9513.8
2017-Apr-14 16:38N 48°27' W 125°05'216.5
2017-Apr-14 16:30N 48°29' W 125°03'4516.0
2017-Apr-14 13:40N 48°18' W 123°57'316.4
2017-Apr-14 13:30N 48°17' W 123°53'816.3
2017-Apr-14 12:59N 48°16' W 123°40'715.4
2017-Apr-14 12:31N 48°16' W 123°29'714.6
2017-Apr-14 12:01N 48°23' W 123°24'510.3
2017-Apr-14 11:30N 48°24' W 123°17'714.0
2017-Apr-14 11:01N 48°30' W 123°13'917.4
2017-Apr-14 10:31N 48°39' W 123°15'815.4
2017-Apr-14 10:00N 48°45' W 123°08'713.0
2017-Apr-14 09:30N 48°51' W 123°04'918.0
2017-Apr-14 09:00N 48°57' W 123°14'816.1
2017-Apr-14 08:30N 49°03' W 123°21'5 9.8
2017-Apr-14 08:00N 49°07' W 123°16'5 9.5
2017-Apr-14 07:30N 49°06' W 123°09'510.9
2017-Apr-14 07:00N 49°09' W 123°02'5 9.1
2017-Apr-14 06:30N 49°11' W 122°55'0 0.4
2017-Apr-14 05:58N 49°11' W 122°55'0 0.0
2017-Apr-14 05:28N 49°11' W 122°55'0 0.0
2017-Apr-14 04:58N 49°11' W 122°55'0 0.0
2017-Apr-14 04:28N 49°11' W 122°55'0 0.0
2017-Apr-14 03:58N 49°11' W 122°55'0 0.0
2017-Apr-14 03:28N 49°11' W 122°55'0 0.0
2017-Apr-14 02:58N 49°11' W 122°55'0 0.0
2017-Apr-14 02:28N 49°11' W 122°55'0 0.0
2017-Apr-14 01:58N 49°11' W 122°55'0 0.0
2017-Apr-14 01:28N 49°11' W 122°55'0 0.0
2017-Apr-14 00:58N 49°11' W 122°55'0 0.0
2017-Apr-14 00:28N 49°11' W 122°55'0 0.0
2017-Apr-13 23:58N 49°11' W 122°55'0 0.0
2017-Apr-13 23:28N 49°11' W 122°55'0 0.0
2017-Apr-13 22:58N 49°11' W 122°55'0 0.0
2017-Apr-13 22:28N 49°11' W 122°55'0 0.0
2017-Apr-13 21:58N 49°11' W 122°55'0 0.0
2017-Apr-13 21:28N 49°11' W 122°55'0 0.0
2017-Apr-13 20:58N 49°11' W 122°55'0 0.0
2017-Apr-13 20:28N 49°11' W 122°55'0 0.0
2017-Apr-13 19:58N 49°11' W 122°55'0 0.0
2017-Apr-13 19:28N 49°11' W 122°55'0 0.0
2017-Apr-13 18:58N 49°11' W 122°55'0 0.0
2017-Apr-13 18:28N 49°11' W 122°55'0 0.0
2017-Apr-13 17:58N 49°11' W 122°55'0 0.4
2017-Apr-13 17:30N 49°11' W 122°55'3 5.7
2017-Apr-13 17:00N 49°09' W 122°59'510.1
2017-Apr-13 16:30N 49°07' W 123°06'612.0
2017-Apr-13 16:00N 49°08' W 123°15'510.5
2017-Apr-13 15:30N 49°06' W 123°22'611.1
2017-Apr-13 15:00N 49°12' W 123°22'612.5
2017-Apr-13 14:30N 49°18' W 123°18'4 4.1
2017-Apr-13 13:29N 49°17' W 123°12'0 0.1
2017-Apr-13 12:59N 49°17' W 123°12'0 0.1
2017-Apr-13 12:29N 49°17' W 123°12'0 0.0
2017-Apr-13 11:59N 49°17' W 123°12'0 0.2
2017-Apr-13 11:29N 49°17' W 123°12'0 0.1
2017-Apr-13 10:59N 49°17' W 123°12'0 0.0
2017-Apr-13 10:29N 49°17' W 123°12'0 0.1
2017-Apr-13 09:59N 49°17' W 123°12'0 0.1
2017-Apr-13 09:29N 49°17' W 123°12'0 0.0
2017-Apr-13 08:59N 49°17' W 123°12'0 0.1
2017-Apr-13 08:29N 49°17' W 123°12'0 0.0
2017-Apr-13 07:59N 49°17' W 123°12'0 0.0
2017-Apr-13 07:29N 49°17' W 123°12'0 0.1
2017-Apr-13 06:59N 49°17' W 123°12'0 0.0
2017-Apr-13 06:29N 49°17' W 123°12'0 0.1
2017-Apr-13 05:59N 49°17' W 123°12'0 0.1
2017-Apr-13 05:29N 49°17' W 123°12'0 0.0
2017-Apr-13 04:59N 49°17' W 123°12'0 0.0
2017-Apr-13 04:29N 49°17' W 123°12'0 0.0
2017-Apr-13 03:59N 49°17' W 123°12'0 0.0
2017-Apr-13 03:29N 49°17' W 123°12'0 0.0
2017-Apr-13 02:59N 49°17' W 123°12'0 0.0
2017-Apr-13 02:29N 49°17' W 123°12'0 0.0
2017-Apr-13 01:59N 49°17' W 123°12'0 0.0
2017-Apr-13 01:29N 49°17' W 123°12'0 0.0
2017-Apr-13 00:59N 49°17' W 123°12'0 0.0
2017-Apr-13 00:29N 49°17' W 123°12'0 0.0
2017-Apr-12 23:59N 49°17' W 123°12'0 0.0
2017-Apr-12 23:29N 49°17' W 123°12'0 0.0
2017-Apr-12 22:59N 49°17' W 123°12'0 0.0
2017-Apr-12 22:29N 49°17' W 123°12'0 0.0
2017-Apr-12 21:59N 49°17' W 123°12'0 0.0
2017-Apr-12 21:29N 49°17' W 123°12'0 0.0
2017-Apr-12 20:59N 49°17' W 123°12'0 0.0
2017-Apr-12 20:29N 49°17' W 123°12'0 0.0
2017-Apr-12 19:59N 49°17' W 123°12'0 0.0
2017-Apr-12 19:29N 49°17' W 123°12'0 0.1
2017-Apr-12 18:59N 49°17' W 123°12'0 0.0
2017-Apr-12 18:29N 49°17' W 123°12'0 0.1
2017-Apr-12 17:59N 49°17' W 123°12'0 0.1
2017-Apr-12 17:29N 49°17' W 123°12'0 0.0
2017-Apr-12 16:59N 49°17' W 123°12'0 0.0
2017-Apr-12 16:29N 49°17' W 123°12'0 0.0
2017-Apr-12 15:59N 49°17' W 123°12'0 0.0
2017-Apr-12 15:29N 49°17' W 123°12'0 0.0
2017-Apr-12 14:59N 49°17' W 123°12'0 0.0
2017-Apr-12 14:29N 49°17' W 123°12'0 0.0
2017-Apr-12 13:29N 49°17' W 123°12'0 0.2
2017-Apr-12 12:59N 49°17' W 123°11'0 0.0
2017-Apr-12 12:29N 49°17' W 123°11'0 0.0
2017-Apr-12 11:59N 49°17' W 123°11'0 0.0
2017-Apr-12 11:29N 49°17' W 123°11'0 0.1
2017-Apr-12 10:59N 49°17' W 123°11'0 0.0
2017-Apr-12 10:29N 49°17' W 123°11'0 0.1
2017-Apr-12 09:59N 49°17' W 123°11'0 0.1
2017-Apr-12 09:29N 49°17' W 123°11'0 0.1
2017-Apr-12 08:59N 49°17' W 123°11'0 0.0
2017-Apr-12 08:29N 49°17' W 123°11'0 0.1
2017-Apr-12 07:59N 49°17' W 123°12'0 0.0
2017-Apr-12 07:29N 49°17' W 123°12'0 0.0
2017-Apr-12 06:59N 49°17' W 123°12'0 0.0
2017-Apr-12 06:29N 49°17' W 123°12'0 0.0
2017-Apr-12 05:59N 49°17' W 123°12'0 0.0
2017-Apr-12 05:29N 49°17' W 123°12'0 0.0
2017-Apr-12 04:59N 49°17' W 123°12'0 0.1
2017-Apr-12 04:29N 49°17' W 123°11'0 0.0
2017-Apr-12 03:59N 49°17' W 123°11'0 0.1
2017-Apr-12 03:29N 49°17' W 123°11'0 0.1
2017-Apr-12 02:59N 49°17' W 123°11'0 0.1
2017-Apr-12 02:29N 49°17' W 123°11'0 0.0
2017-Apr-12 01:59N 49°17' W 123°11'0 0.0
2017-Apr-12 01:29N 49°17' W 123°11'0 0.1
2017-Apr-12 00:59N 49°17' W 123°11'0 0.0
2017-Apr-12 00:29N 49°17' W 123°11'0 0.1
2017-Apr-11 23:59N 49°17' W 123°11'0 0.1
2017-Apr-11 23:29N 49°17' W 123°11'0 0.0
2017-Apr-11 22:59N 49°17' W 123°11'0 0.1
2017-Apr-11 22:29N 49°17' W 123°11'0 0.1
2017-Apr-11 21:59N 49°17' W 123°11'0 0.1
2017-Apr-11 21:29N 49°17' W 123°11'0 0.0
2017-Apr-11 20:59N 49°17' W 123°11'0 0.0
2017-Apr-11 20:29N 49°17' W 123°11'0 0.1
2017-Apr-11 19:59N 49°17' W 123°11'0 0.0
2017-Apr-11 19:29N 49°17' W 123°11'0 0.0
2017-Apr-11 18:59N 49°17' W 123°11'0 0.0
2017-Apr-11 18:29N 49°17' W 123°11'0 0.1
2017-Apr-11 17:59N 49°17' W 123°12'0 0.0
2017-Apr-11 17:29N 49°17' W 123°12'0 0.0
2017-Apr-11 16:59N 49°17' W 123°12'0 0.0
2017-Apr-11 16:29N 49°17' W 123°12'0 0.0
2017-Apr-11 15:59N 49°17' W 123°12'0 0.0
2017-Apr-11 15:29N 49°17' W 123°12'0 0.1
2017-Apr-11 14:59N 49°17' W 123°12'0 0.0
2017-Apr-11 14:26N 49°17' W 123°12'0 0.0
2017-Apr-11 13:29N 49°17' W 123°12'0 0.0
2017-Apr-11 12:59N 49°17' W 123°12'0 0.0
2017-Apr-11 12:29N 49°17' W 123°12'0 0.0
2017-Apr-11 11:59N 49°17' W 123°12'0 0.1
2017-Apr-11 11:29N 49°17' W 123°12'0 0.1
2017-Apr-11 10:59N 49°17' W 123°11'0 0.0
2017-Apr-11 10:29N 49°17' W 123°11'0 0.0
2017-Apr-11 09:59N 49°17' W 123°11'0 0.0
2017-Apr-11 09:29N 49°17' W 123°11'0 0.0
2017-Apr-11 08:56N 49°17' W 123°11'0 0.1
2017-Apr-11 08:29N 49°17' W 123°11'0 0.1
2017-Apr-11 07:59N 49°17' W 123°12'0 0.1
2017-Apr-11 07:29N 49°17' W 123°11'0 0.0
2017-Apr-11 06:59N 49°17' W 123°11'0 0.1
2017-Apr-11 06:29N 49°17' W 123°12'0 0.0
2017-Apr-11 05:59N 49°17' W 123°12'0 0.0
2017-Apr-11 05:29N 49°17' W 123°12'0 0.0
2017-Apr-11 04:59N 49°17' W 123°12'0 0.0
2017-Apr-11 04:29N 49°17' W 123°12'0 0.0
2017-Apr-11 03:56N 49°17' W 123°12'0 0.0
2017-Apr-11 03:29N 49°17' W 123°12'0 0.1
2017-Apr-11 02:59N 49°17' W 123°11'0 0.0
2017-Apr-11 02:29N 49°17' W 123°11'0 0.1
2017-Apr-11 01:59N 49°17' W 123°12'0 0.0
2017-Apr-11 01:29N 49°17' W 123°12'0 0.0
2017-Apr-11 00:59N 49°17' W 123°12'0 0.1
2017-Apr-11 00:29N 49°17' W 123°12'0 0.0
2017-Apr-10 23:59N 49°17' W 123°12'0 0.0
2017-Apr-10 23:29N 49°17' W 123°12'0 0.1
2017-Apr-10 22:59N 49°17' W 123°12'0 0.1
2017-Apr-10 22:29N 49°17' W 123°12'0 0.0
2017-Apr-10 21:59N 49°17' W 123°12'0 0.0
2017-Apr-10 21:29N 49°17' W 123°12'0 0.0
2017-Apr-10 20:59N 49°17' W 123°12'0 0.0
2017-Apr-10 20:29N 49°17' W 123°12'0 0.0
2017-Apr-10 19:59N 49°17' W 123°12'0 0.0
2017-Apr-10 19:29N 49°17' W 123°12'0 0.0
2017-Apr-10 18:59N 49°17' W 123°12'0 0.0
2017-Apr-10 18:29N 49°17' W 123°12'0 0.0
2017-Apr-10 17:59N 49°17' W 123°12'0 0.0
2017-Apr-10 17:29N 49°17' W 123°12'0 0.0
2017-Apr-10 16:59N 49°17' W 123°12'0 0.0
2017-Apr-10 16:29N 49°17' W 123°12'0 0.0
2017-Apr-10 15:59N 49°17' W 123°12'0 0.0
2017-Apr-10 15:29N 49°17' W 123°12'0 0.0
2017-Apr-10 14:59N 49°17' W 123°12'0 0.0
2017-Apr-10 13:59N 49°17' W 123°12'0 0.0
2017-Apr-10 13:26N 49°17' W 123°12'0 0.0
2017-Apr-10 12:59N 49°17' W 123°12'0 0.0
2017-Apr-10 12:29N 49°17' W 123°12'0 0.0
2017-Apr-10 11:59N 49°17' W 123°12'0 0.0
2017-Apr-10 11:29N 49°17' W 123°12'0 0.0
2017-Apr-10 10:59N 49°17' W 123°12'0 0.0
2017-Apr-10 10:29N 49°17' W 123°12'0 0.0
2017-Apr-10 09:59N 49°17' W 123°12'0 0.0
2017-Apr-10 09:29N 49°17' W 123°12'0 0.0
2017-Apr-10 08:59N 49°17' W 123°12'0 0.0
2017-Apr-10 08:29N 49°17' W 123°12'0 0.1
2017-Apr-10 07:59N 49°17' W 123°11'0 0.1
2017-Apr-10 07:29N 49°17' W 123°12'0 0.0
2017-Apr-10 06:59N 49°17' W 123°12'0 0.0
2017-Apr-10 06:29N 49°17' W 123°12'0 0.0
2017-Apr-10 05:59N 49°17' W 123°12'0 0.0
2017-Apr-10 05:29N 49°17' W 123°12'0 0.0
2017-Apr-10 04:59N 49°17' W 123°12'0 0.0
2017-Apr-10 04:29N 49°17' W 123°12'0 0.0
2017-Apr-10 03:59N 49°17' W 123°12'  

Dump ship's entire track history